createdAt,value
2022-11-25T00:00:56.431Z,6.06
2022-11-25T00:03:26.785Z,6.07
2022-11-25T00:05:57.159Z,6.08
2022-11-25T00:08:31.358Z,6.11
2022-11-25T00:11:03.893Z,6.12
2022-11-25T00:13:34.741Z,6.07
2022-11-25T00:16:05.895Z,6.11
2022-11-25T00:18:36.463Z,6.13
2022-11-25T00:21:10.176Z,6.14
2022-11-25T00:23:43.078Z,6.07
2022-11-25T00:26:14.851Z,5.97
2022-11-25T00:28:46.275Z,5.94
2022-11-25T00:31:19.166Z,5.91
2022-11-25T00:33:49.731Z,5.79
2022-11-25T00:36:25.594Z,5.78
2022-11-25T00:39:00.047Z,5.81
2022-11-25T00:41:43.551Z,5.79
2022-11-25T00:44:27.968Z,5.80
2022-11-25T00:46:58.060Z,5.82
2022-11-25T00:49:28.260Z,5.81
2022-11-25T00:51:58.688Z,5.83
2022-11-25T00:54:31.531Z,5.84
2022-11-25T00:57:01.843Z,5.83
2022-11-25T00:59:31.835Z,5.84
2022-11-25T01:02:02.940Z,5.81
2022-11-25T01:04:33.711Z,5.82
2022-11-25T01:07:04.041Z,5.77
2022-11-25T01:09:37.731Z,5.80
2022-11-25T01:12:08.376Z,5.79
2022-11-25T01:14:38.776Z,5.81
2022-11-25T01:17:09.060Z,5.81
2022-11-25T01:19:41.267Z,5.81
2022-11-25T01:22:12.044Z,5.82
2022-11-25T01:24:44.750Z,5.82
2022-11-25T01:27:14.775Z,5.84
2022-11-25T01:29:44.882Z,5.81
2022-11-25T01:32:14.998Z,5.78
2022-11-25T01:34:45.091Z,5.76
2022-11-25T01:37:15.168Z,5.73
2022-11-25T01:39:48.275Z,5.69
2022-11-25T01:42:20.206Z,5.64
2022-11-25T01:45:28.698Z,5.60
2022-11-25T01:48:05.209Z,5.50
2022-11-25T01:50:37.142Z,5.45
2022-11-25T01:53:11.011Z,5.42
2022-11-25T01:55:47.760Z,5.42
2022-11-25T01:58:21.504Z,5.37
2022-11-25T02:00:53.998Z,5.37
2022-11-25T02:03:27.699Z,5.36
2022-11-25T02:06:05.347Z,5.37
2022-11-25T02:08:36.572Z,5.41
2022-11-25T02:11:09.442Z,5.45
2022-11-25T02:13:40.680Z,5.48
2022-11-25T02:16:10.778Z,5.51
2022-11-25T02:18:41.100Z,5.55
2022-11-25T02:21:11.563Z,5.57
2022-11-25T02:23:45.781Z,5.58
2022-11-25T02:26:18.791Z,5.61
2022-11-25T02:28:49.972Z,5.61
2022-11-25T02:31:23.435Z,5.62
2022-11-25T02:33:53.620Z,5.60
2022-11-25T02:36:25.940Z,5.58
2022-11-25T02:38:59.044Z,5.54
2022-11-25T02:41:35.141Z,5.55
2022-11-25T02:44:06.232Z,5.56
2022-11-25T02:46:37.268Z,5.55
2022-11-25T02:49:09.273Z,5.57
2022-11-25T02:51:41.084Z,5.59
2022-11-25T02:54:11.209Z,5.51
2022-11-25T02:56:44.007Z,5.56
2022-11-25T02:59:14.794Z,5.54
2022-11-25T03:01:44.990Z,5.57
2022-11-25T03:04:15.373Z,5.56
2022-11-25T03:06:45.494Z,5.53
2022-11-25T03:09:15.524Z,5.50
2022-11-25T03:12:00.623Z,5.53
2022-11-25T03:14:30.834Z,5.57
2022-11-25T03:17:00.919Z,5.38
2022-11-25T03:19:32.238Z,5.45
2022-11-25T03:22:02.285Z,5.48
2022-11-25T03:24:32.593Z,5.39
2022-11-25T03:27:05.251Z,5.51
2022-11-25T03:29:35.975Z,5.52
2022-11-25T03:32:09.476Z,5.47
2022-11-25T03:34:39.726Z,5.48
2022-11-25T03:37:10.295Z,5.40
2022-11-25T03:39:43.508Z,5.52
2022-11-25T03:42:16.329Z,5.53
2022-11-25T03:44:46.705Z,5.53
2022-11-25T03:47:16.787Z,5.55
2022-11-25T03:49:46.953Z,5.52
2022-11-25T03:52:17.036Z,5.53
2022-11-25T03:54:48.155Z,5.56
2022-11-25T03:57:20.871Z,5.54
2022-11-25T03:59:51.855Z,5.53
2022-11-25T04:02:21.930Z,5.51
2022-11-25T04:04:51.940Z,5.50
2022-11-25T04:07:22.083Z,5.50
2022-11-25T04:09:52.812Z,5.47
2022-11-25T04:12:38.236Z,5.56
2022-11-25T04:15:09.055Z,5.53
2022-11-25T04:17:39.212Z,5.51
2022-11-25T04:20:10.987Z,5.48
2022-11-25T04:22:41.254Z,5.53
2022-11-25T04:25:12.646Z,5.55
2022-11-25T04:27:45.751Z,5.58
2022-11-25T04:30:17.471Z,5.56
2022-11-25T04:32:47.635Z,5.60
2022-11-25T04:35:17.751Z,5.63
2022-11-25T04:37:47.993Z,5.64
2022-11-25T04:40:18.527Z,5.58
2022-11-25T04:42:52.287Z,5.62
2022-11-25T04:45:25.023Z,5.61
2022-11-25T04:47:55.345Z,5.64
2022-11-25T04:50:26.620Z,5.59
2022-11-25T04:52:56.742Z,5.70
2022-11-25T04:55:26.740Z,5.71
2022-11-25T04:58:03.233Z,5.65
2022-11-25T05:00:31.723Z,5.70
2022-11-25T05:03:01.767Z,5.67
2022-11-25T05:05:31.950Z,5.60
2022-11-25T05:08:02.135Z,5.60
2022-11-25T05:10:32.275Z,5.62
2022-11-25T05:13:04.919Z,5.64
2022-11-25T05:15:34.894Z,5.67
2022-11-25T05:18:05.097Z,5.67
2022-11-25T05:20:36.021Z,5.66
2022-11-25T05:23:06.167Z,5.69
2022-11-25T05:25:36.229Z,5.68
2022-11-25T05:28:08.864Z,5.66
2022-11-25T05:30:39.147Z,5.64
2022-11-25T05:33:12.143Z,5.63
2022-11-25T05:35:42.137Z,5.58
2022-11-25T05:38:12.211Z,5.54
2022-11-25T05:40:42.281Z,5.50
2022-11-25T05:43:14.927Z,5.42
2022-11-25T05:45:45.069Z,5.37
2022-11-25T05:48:15.299Z,5.34
2022-11-25T05:50:45.500Z,5.29
2022-11-25T05:53:17.511Z,5.28
2022-11-25T05:55:47.560Z,5.28
2022-11-25T05:58:20.357Z,5.19
2022-11-25T06:00:51.018Z,5.12
2022-11-25T06:03:21.116Z,5.05
2022-11-25T06:05:51.123Z,4.99
2022-11-25T06:08:21.204Z,4.90
2022-11-25T06:10:51.280Z,4.76
2022-11-25T06:13:24.531Z,4.69
2022-11-25T06:15:54.615Z,4.64
2022-11-25T06:18:24.713Z,4.54
2022-11-25T06:21:00.071Z,4.49
2022-11-25T06:23:30.119Z,4.47
2022-11-25T06:26:06.385Z,4.47
2022-11-25T06:28:39.506Z,4.44
2022-11-25T06:31:11.357Z,4.45
2022-11-25T06:33:41.460Z,4.44
2022-11-25T06:36:17.331Z,4.44
2022-11-25T06:38:47.849Z,4.46
2022-11-25T06:41:18.367Z,4.50
2022-11-25T06:43:51.088Z,4.50
2022-11-25T06:46:25.231Z,4.53
2022-11-25T06:48:55.726Z,4.60
2022-11-25T06:51:25.791Z,4.63
2022-11-25T06:53:56.054Z,4.60
2022-11-25T06:56:28.019Z,4.54
2022-11-25T06:59:00.729Z,4.54
2022-11-25T07:01:32.666Z,4.42
2022-11-25T07:04:05.751Z,4.54
2022-11-25T07:06:36.448Z,4.60
2022-11-25T07:09:08.163Z,4.67
2022-11-25T07:11:42.484Z,4.74
2022-11-25T07:14:17.104Z,4.85
2022-11-25T07:16:48.607Z,4.92
2022-11-25T07:19:20.883Z,4.94
2022-11-25T07:21:50.959Z,4.97
2022-11-25T07:24:21.660Z,5.04
2022-11-25T07:26:51.732Z,5.05
2022-11-25T07:32:15.843Z,5.07
2022-11-25T07:34:46.092Z,5.09
2022-11-25T07:37:16.176Z,4.91
2022-11-25T07:39:46.137Z,5.04
2022-11-25T07:42:16.289Z,5.04
2022-11-25T07:44:48.969Z,5.03
2022-11-25T07:47:19.179Z,5.02
2022-11-25T07:49:50.749Z,5.09
2022-11-25T07:52:20.875Z,5.21
2022-11-25T07:54:51.100Z,5.28
2022-11-25T07:57:21.124Z,5.41
2022-11-25T07:59:54.128Z,5.44
2022-11-25T08:02:24.769Z,5.51
2022-11-25T08:04:54.888Z,5.56
2022-11-25T08:07:25.289Z,5.70
2022-11-25T08:09:55.492Z,5.77
2022-11-25T08:12:25.532Z,5.80
2022-11-25T08:14:58.331Z,5.92
2022-11-25T08:17:28.443Z,5.85
2022-11-25T08:19:59.033Z,5.93
2022-11-25T08:22:29.106Z,5.99
2022-11-25T08:25:00.246Z,6.08
2022-11-25T08:27:30.349Z,6.10
2022-11-25T08:30:03.050Z,6.01
2022-11-25T08:32:34.219Z,5.84
2022-11-25T08:35:04.455Z,5.74
2022-11-25T08:37:35.232Z,5.69
2022-11-25T08:40:08.583Z,5.71
2022-11-25T08:42:40.828Z,5.87
2022-11-25T08:45:14.675Z,5.94
2022-11-25T08:47:44.673Z,6.12
2022-11-25T08:50:18.431Z,6.25
2022-11-25T08:52:48.477Z,6.37
2022-11-25T08:55:18.962Z,6.38
2022-11-25T08:57:49.084Z,6.50
2022-11-25T09:00:23.202Z,6.39
2022-11-25T09:02:53.601Z,6.49
2022-11-25T09:05:23.776Z,6.53
2022-11-25T09:07:54.020Z,6.57
2022-11-25T09:10:24.966Z,6.71
2022-11-25T09:12:55.077Z,6.75
2022-11-25T09:15:28.020Z,6.83
2022-11-25T09:18:02.421Z,6.80
2022-11-25T09:20:32.845Z,6.80
2022-11-25T09:23:04.220Z,6.70
2022-11-25T09:25:34.458Z,6.65
2022-11-25T09:28:05.406Z,6.56
2022-11-25T09:30:38.219Z,6.52
2022-11-25T09:33:08.327Z,6.53
2022-11-25T09:35:39.461Z,6.52
2022-11-25T09:38:09.616Z,6.62
2022-11-25T09:40:53.877Z,6.39
2022-11-25T09:43:42.368Z,6.51
2022-11-25T09:46:46.342Z,6.66
2022-11-25T09:49:33.874Z,6.73
2022-11-25T09:52:16.012Z,6.77
2022-11-25T09:54:51.088Z,6.82
2022-11-25T09:57:29.921Z,6.54
2022-11-25T10:00:10.678Z,6.62
2022-11-25T10:02:48.617Z,6.49
2022-11-25T10:05:23.034Z,6.60
2022-11-25T10:07:55.871Z,6.60
2022-11-25T10:10:31.285Z,6.62
2022-11-25T10:13:02.436Z,6.98
2022-11-25T10:15:36.924Z,6.94
2022-11-25T10:18:19.887Z,6.85
2022-11-25T10:20:53.671Z,6.81
2022-11-25T10:23:28.545Z,6.56
2022-11-25T10:26:04.066Z,6.65
2022-11-25T10:28:36.844Z,6.71
2022-11-25T10:31:13.253Z,6.68
2022-11-25T10:33:49.972Z,6.76
2022-11-25T10:36:23.084Z,6.86
2022-11-25T10:39:03.470Z,6.87
2022-11-25T10:41:36.148Z,6.87
2022-11-25T10:44:06.862Z,6.83
2022-11-25T10:47:12.216Z,6.91
2022-11-25T10:49:44.328Z,6.85
2022-11-25T10:52:17.004Z,6.81
2022-11-25T10:55:00.743Z,6.93
2022-11-25T10:57:32.157Z,6.95
2022-11-25T11:00:04.784Z,6.82
2022-11-25T11:02:48.417Z,6.95
2022-11-25T11:05:26.222Z,6.88
2022-11-25T11:08:13.101Z,6.97
2022-11-25T11:10:44.335Z,6.97
2022-11-25T11:13:26.838Z,7.00
2022-11-25T11:15:57.323Z,7.05
2022-11-25T11:18:30.626Z,7.07
2022-11-25T11:21:03.628Z,7.03
2022-11-25T11:23:33.783Z,7.11
2022-11-25T11:26:05.414Z,7.19
2022-11-25T11:28:43.586Z,7.22
2022-11-25T11:31:21.169Z,7.18
2022-11-25T11:34:01.299Z,7.12
2022-11-25T11:36:46.606Z,7.13
2022-11-25T11:39:50.923Z,7.12
2022-11-25T11:42:32.612Z,7.13
2022-11-25T11:45:15.471Z,7.12
2022-11-25T11:48:01.852Z,7.18
2022-11-25T11:50:36.171Z,7.13
2022-11-25T11:53:13.215Z,7.11
2022-11-25T11:56:18.924Z,7.03
2022-11-25T11:59:05.993Z,7.11
2022-11-25T12:01:49.043Z,7.18
2022-11-25T12:04:24.810Z,7.16
2022-11-25T12:07:04.761Z,6.93
2022-11-25T12:09:46.286Z,7.07
2022-11-25T12:12:21.693Z,7.08
2022-11-25T12:14:56.821Z,7.18
2022-11-25T12:17:38.816Z,7.28
2022-11-25T12:20:18.939Z,7.22
2022-11-25T12:22:56.307Z,7.23
2022-11-25T12:25:36.168Z,7.16
2022-11-25T12:28:11.957Z,7.25
2022-11-25T12:31:04.943Z,7.25
2022-11-25T12:33:49.397Z,7.32
2022-11-25T12:36:23.809Z,7.28
2022-11-25T12:39:03.007Z,7.22
2022-11-25T12:41:45.098Z,7.04
2022-11-25T12:44:20.292Z,6.95
2022-11-25T12:46:52.772Z,7.00
2022-11-25T12:49:24.754Z,6.92
2022-11-25T12:52:28.992Z,6.96
2022-11-25T12:55:11.528Z,6.95
2022-11-25T12:58:21.598Z,7.02
2022-11-25T13:01:33.938Z,7.07
2022-11-25T13:04:26.270Z,7.06
2022-11-25T13:07:17.229Z,6.99
2022-11-25T13:10:10.292Z,6.94
2022-11-25T13:12:56.431Z,6.89
2022-11-25T13:15:34.675Z,6.78
2022-11-25T13:18:12.486Z,6.70
2022-11-25T13:20:51.324Z,6.63
2022-11-25T13:23:49.575Z,6.59
2022-11-25T13:26:55.809Z,6.62
2022-11-25T13:30:02.046Z,6.66
2022-11-25T13:32:43.383Z,6.56
2022-11-25T13:35:40.912Z,6.48
2022-11-25T13:38:35.560Z,6.44
2022-11-25T13:41:06.760Z,6.48
2022-11-25T13:43:37.137Z,6.43
2022-11-25T13:46:07.518Z,6.43
2022-11-25T13:48:43.670Z,6.38
2022-11-25T13:51:20.602Z,6.40
2022-11-25T13:53:56.271Z,6.36
2022-11-25T13:56:31.898Z,6.29
2022-11-25T13:59:22.744Z,6.20
2022-11-25T14:01:57.442Z,6.25
2022-11-25T14:04:48.353Z,6.21
2022-11-25T14:07:32.859Z,6.18
2022-11-25T14:10:23.968Z,6.18
2022-11-25T14:13:14.257Z,6.16
2022-11-25T14:16:01.086Z,6.18
2022-11-25T14:22:00.660Z,6.02
2022-11-25T14:24:35.971Z,6.01
2022-11-25T14:27:08.084Z,6.04
2022-11-25T14:29:46.641Z,6.07
2022-11-25T14:32:22.072Z,6.07
2022-11-25T14:34:59.332Z,6.07
2022-11-25T14:37:37.851Z,6.05
2022-11-25T14:40:14.952Z,6.06
2022-11-25T14:42:49.434Z,5.99
2022-11-25T14:45:24.943Z,6.07
2022-11-25T14:47:55.254Z,6.02
2022-11-25T14:50:34.822Z,6.02
2022-11-25T14:53:14.378Z,6.05
2022-11-25T14:55:44.840Z,6.03
2022-11-25T14:58:15.512Z,6.01
2022-11-25T15:00:53.974Z,6.01
2022-11-25T15:03:24.197Z,6.00
2022-11-25T15:05:58.144Z,5.97
2022-11-25T15:08:30.851Z,5.87
2022-11-25T15:11:03.087Z,5.81
2022-11-25T15:13:38.605Z,5.86
2022-11-25T15:16:14.803Z,5.86
2022-11-25T15:18:51.912Z,5.92
2022-11-25T15:21:25.116Z,5.89
2022-11-25T15:23:58.040Z,5.90
2022-11-25T15:26:30.111Z,5.91
2022-11-25T15:29:02.098Z,5.92
2022-11-25T15:31:36.138Z,5.95
2022-11-25T15:34:09.509Z,5.91
2022-11-25T15:36:39.691Z,5.91
2022-11-25T15:39:29.659Z,5.95
2022-11-25T15:42:08.711Z,5.88
2022-11-25T15:44:43.526Z,5.93
2022-11-25T15:47:22.585Z,5.95
2022-11-25T15:50:01.281Z,5.77
2022-11-25T15:52:34.602Z,5.92
2022-11-25T15:55:10.767Z,5.91
2022-11-25T15:57:42.082Z,5.88
2022-11-25T16:00:20.024Z,5.89
2022-11-25T16:02:57.516Z,5.86
2022-11-25T16:05:31.895Z,5.85
2022-11-25T16:08:38.857Z,5.87
2022-11-25T16:11:20.196Z,5.89
2022-11-25T16:13:51.322Z,5.86
2022-11-25T16:16:29.981Z,5.85
2022-11-25T16:19:16.089Z,5.85
2022-11-25T16:21:53.205Z,5.86
2022-11-25T16:24:32.903Z,5.84
2022-11-25T16:27:08.325Z,5.85
2022-11-25T16:29:50.689Z,5.81
2022-11-25T16:32:23.241Z,5.83
2022-11-25T16:34:56.204Z,5.81
2022-11-25T16:37:26.732Z,5.81
2022-11-25T16:39:59.939Z,5.77
2022-11-25T16:42:32.771Z,5.75
2022-11-25T16:45:04.118Z,5.77
2022-11-25T16:47:34.246Z,5.65
2022-11-25T16:50:04.533Z,5.63
2022-11-25T16:52:34.636Z,5.58
2022-11-25T16:55:04.686Z,5.53
2022-11-25T16:57:38.491Z,5.52
2022-11-25T17:00:17.110Z,5.53
2022-11-25T17:02:47.879Z,5.57
2022-11-25T17:05:22.653Z,5.50
2022-11-25T17:07:53.315Z,5.60
2022-11-25T17:10:26.184Z,5.65
2022-11-25T17:12:59.653Z,5.66
2022-11-25T17:15:35.342Z,5.66
2022-11-25T17:18:10.286Z,5.66
2022-11-25T17:20:40.437Z,5.68
2022-11-25T17:23:15.491Z,5.69
2022-11-25T17:25:49.849Z,5.70
2022-11-25T17:28:24.685Z,5.70
2022-11-25T17:30:55.284Z,5.72
2022-11-25T17:33:25.445Z,5.68
2022-11-25T17:35:55.839Z,5.66
2022-11-25T17:38:26.027Z,5.62
2022-11-25T17:40:56.155Z,5.63
2022-11-25T17:43:34.340Z,5.64
2022-11-25T17:46:04.815Z,5.61
2022-11-25T17:48:35.122Z,5.62
2022-11-25T17:51:07.630Z,5.62
2022-11-25T17:53:39.139Z,5.55
2022-11-25T17:56:25.394Z,5.57
2022-11-25T17:59:02.458Z,5.58
2022-11-25T18:01:32.756Z,5.58
2022-11-25T18:04:14.943Z,5.62
2022-11-25T18:06:46.634Z,5.63
2022-11-25T18:09:17.166Z,5.63
2022-11-25T18:11:49.556Z,5.66
2022-11-25T18:14:28.117Z,5.66
2022-11-25T18:16:59.376Z,5.58
2022-11-25T18:19:29.561Z,5.58
2022-11-25T18:22:02.811Z,5.53
2022-11-25T18:24:32.973Z,5.35
2022-11-25T18:27:03.119Z,5.49
2022-11-25T18:29:36.851Z,5.42
2022-11-25T18:32:07.388Z,5.38
2022-11-25T18:34:37.749Z,5.43
2022-11-25T18:37:08.111Z,5.43
2022-11-25T18:39:38.244Z,5.43
2022-11-25T18:42:10.286Z,5.46
2022-11-25T18:44:44.806Z,5.50
2022-11-25T18:47:15.532Z,5.48
2022-11-25T18:49:49.790Z,5.42
2022-11-25T18:52:22.580Z,5.44
2022-11-25T18:54:52.659Z,5.46
2022-11-25T18:57:26.520Z,5.49
2022-11-25T19:00:24.878Z,5.48
2022-11-25T19:02:49.920Z,5.44
2022-11-25T19:05:23.000Z,5.43
2022-11-25T19:07:56.220Z,5.42
2022-11-25T19:10:30.284Z,5.47
2022-11-25T19:13:03.485Z,5.48
2022-11-25T19:15:37.660Z,5.50
2022-11-25T19:18:10.114Z,5.54
2022-11-25T19:20:40.161Z,5.43
2022-11-25T19:23:21.447Z,5.50
2022-11-25T19:25:52.272Z,5.53
2022-11-25T19:28:23.606Z,5.50
2022-11-25T19:31:00.987Z,5.51
2022-11-25T19:33:35.925Z,5.50
2022-11-25T19:36:10.367Z,5.51
2022-11-25T19:38:40.499Z,5.41
2022-11-25T19:41:11.181Z,5.41
2022-11-25T19:43:41.395Z,5.48
2022-11-25T19:46:29.668Z,5.54
2022-11-25T19:49:03.987Z,5.55
2022-11-25T19:51:35.996Z,5.55
2022-11-25T19:54:06.473Z,5.51
2022-11-25T19:56:37.738Z,5.55
2022-11-25T19:59:21.667Z,5.56
2022-11-25T20:01:54.516Z,5.58
2022-11-25T20:04:25.403Z,5.53
2022-11-25T20:06:55.660Z,5.60
2022-11-25T20:09:26.558Z,5.58
2022-11-25T20:12:05.382Z,5.58
2022-11-25T20:14:40.899Z,5.53
2022-11-25T20:17:18.569Z,5.54
2022-11-25T20:19:49.106Z,5.56
2022-11-25T20:22:21.155Z,5.55
2022-11-25T20:24:51.355Z,5.59
2022-11-25T20:27:21.465Z,5.60
2022-11-25T20:29:54.765Z,5.60
2022-11-25T20:32:30.773Z,5.63
2022-11-25T20:35:01.849Z,5.62
2022-11-25T20:37:40.537Z,5.60
2022-11-25T20:40:19.087Z,5.65
2022-11-25T20:42:49.938Z,5.66
2022-11-25T20:45:21.774Z,5.69
2022-11-25T20:47:54.410Z,5.71
2022-11-25T20:50:25.542Z,5.69
2022-11-25T20:52:55.755Z,5.70
2022-11-25T20:55:27.855Z,5.72
2022-11-25T20:58:00.935Z,5.71
2022-11-25T21:00:32.009Z,5.76
2022-11-25T21:03:04.819Z,5.82
2022-11-25T21:05:34.875Z,5.76
2022-11-25T21:08:08.037Z,5.73
2022-11-25T21:10:40.880Z,5.73
2022-11-25T21:13:18.296Z,5.71
2022-11-25T21:15:53.293Z,5.71
2022-11-25T21:18:26.984Z,5.72
2022-11-25T21:20:59.807Z,5.69
2022-11-25T21:23:34.592Z,5.69
2022-11-25T21:26:08.605Z,5.68
2022-11-25T21:28:41.654Z,5.68
2022-11-25T21:31:16.749Z,5.66
2022-11-25T21:33:50.379Z,5.65
2022-11-25T21:36:24.216Z,5.67
2022-11-25T21:38:59.486Z,5.65
2022-11-25T21:41:30.062Z,5.64
2022-11-25T21:44:00.573Z,5.64
2022-11-25T21:46:30.732Z,5.62
2022-11-25T21:49:03.525Z,5.59
2022-11-25T21:51:33.650Z,5.58
2022-11-25T21:54:03.674Z,5.56
2022-11-25T21:56:36.819Z,5.59
2022-11-25T21:59:09.581Z,5.63
2022-11-25T22:01:39.682Z,5.65
2022-11-25T22:04:15.701Z,5.67
2022-11-25T22:06:46.712Z,5.64
2022-11-25T22:09:17.317Z,5.65
2022-11-25T22:11:50.495Z,5.65
2022-11-25T22:14:34.806Z,5.60
2022-11-25T22:17:06.624Z,5.65
2022-11-25T22:19:39.431Z,5.65
2022-11-25T22:22:14.616Z,5.66
2022-11-25T22:24:45.226Z,5.65
2022-11-25T22:27:24.069Z,5.61
2022-11-25T22:29:55.296Z,5.58
2022-11-25T22:32:25.527Z,5.53
2022-11-25T22:34:58.175Z,5.51
2022-11-25T22:37:28.200Z,5.54
2022-11-25T22:39:58.409Z,5.45
2022-11-25T22:42:31.114Z,5.48
2022-11-25T22:45:03.757Z,5.43
2022-11-25T22:47:38.979Z,5.43
2022-11-25T22:50:21.103Z,5.43
2022-11-25T22:52:52.173Z,5.44
2022-11-25T22:55:25.086Z,5.47
2022-11-25T22:57:56.922Z,5.48
2022-11-25T23:00:29.048Z,5.44
2022-11-25T23:03:01.245Z,5.52
2022-11-25T23:05:36.611Z,5.49
2022-11-25T23:08:14.115Z,5.48
2022-11-25T23:10:44.928Z,5.50
2022-11-25T23:13:16.061Z,5.52
2022-11-25T23:15:56.032Z,5.52
2022-11-25T23:18:34.007Z,5.50
2022-11-25T23:21:20.003Z,5.52
2022-11-25T23:23:50.409Z,5.52
2022-11-25T23:26:20.673Z,5.51
2022-11-25T23:28:51.087Z,5.50
2022-11-25T23:31:21.636Z,5.51
2022-11-25T23:33:53.624Z,5.50
2022-11-25T23:36:30.068Z,5.49
2022-11-25T23:39:03.396Z,5.45
2022-11-25T23:41:35.515Z,5.46
2022-11-25T23:44:15.445Z,5.45
2022-11-25T23:46:47.139Z,5.41
2022-11-25T23:49:23.307Z,5.38
2022-11-25T23:52:03.334Z,5.36
2022-11-25T23:54:41.026Z,5.30
2022-11-25T23:57:17.251Z,5.25
2022-11-25T23:59:50.184Z,5.21
